Time;durP1;ratioP1;P1;durP2;ratioP2;P2;SDS_P1;SDS_P2;PMS_P1;PMS_P2;Temp;Humidity;BMP_temperature;BMP_pressure;BME280_temperature;BME280_humidity;BME280_pressure;Samples;Min_cycle;Max_cycle;Signal;HPM_P1;HPM_P2
2021/03/13 00:01:18;;;;;;;17.40;4.07;;;5.60;99.90;;;;;;4994867;28;20053;-83
2021/03/13 00:03:45;;;;;;;20.40;3.95;;;5.70;99.90;;;;;;5008571;28;20084;-82
2021/03/13 00:06:11;;;;;;;20.65;5.13;;;5.70;99.90;;;;;;4991132;28;20110;-82
2021/03/13 00:08:38;;;;;;;31.27;4.85;;;5.70;99.90;;;;;;5008303;28;20136;-82
2021/03/13 00:11:10;;;;;;;23.30;4.90;;;5.80;99.90;;;;;;5006152;28;20054;-82
2021/03/13 00:13:37;;;;;;;16.38;5.07;;;5.80;99.90;;;;;;5006210;28;20053;-82
2021/03/13 00:16:05;;;;;;;26.40;5.63;;;5.90;99.90;;;;;;5006867;28;20053;-81
2021/03/13 00:18:32;;;;;;;25.45;4.25;;;6.00;99.90;;;;;;5007285;28;20508;-82
2021/03/13 00:20:59;;;;;;;21.15;5.35;;;6.00;99.90;;;;;;5007014;28;20041;-83
2021/03/13 00:23:26;;;;;;;26.70;5.22;;;6.10;99.90;;;;;;4989705;28;20149;-82
2021/03/13 00:25:52;;;;;;;17.52;4.20;;;6.10;99.90;;;;;;5009198;28;20398;-81
2021/03/13 00:28:19;;;;;;;29.83;6.45;;;6.20;99.90;;;;;;4990713;28;20504;-82
2021/03/13 00:30:46;;;;;;;23.05;4.88;;;6.30;99.90;;;;;;5006241;28;20049;-82
2021/03/13 00:33:18;;;;;;;31.27;7.10;;;6.30;99.90;;;;;;4996683;28;20569;-82
2021/03/13 00:35:47;;;;;;;19.15;5.05;;;6.30;99.90;;;;;;5007755;28;20048;-82
2021/03/13 00:38:14;;;;;;;26.00;6.68;;;6.30;99.90;;;;;;4996731;28;20086;-82
2021/03/13 00:40:42;;;;;;;34.47;7.65;;;6.40;99.90;;;;;;4997836;28;20057;-83
2021/03/13 00:43:10;;;;;;;25.63;5.45;;;6.40;99.90;;;;;;5006834;28;20068;-82
2021/03/13 00:45:37;;;;;;;27.02;5.25;;;6.40;99.90;;;;;;5001022;28;20611;-82
2021/03/13 00:48:04;;;;;;;23.85;4.85;;;6.50;99.90;;;;;;4995778;28;20461;-83
2021/03/13 00:50:32;;;;;;;19.95;5.07;;;6.50;99.90;;;;;;5008560;28;20081;-82
2021/03/13 00:52:59;;;;;;;18.40;4.55;;;6.50;99.90;;;;;;5007518;28;20073;-81
2021/03/13 00:55:27;;;;;;;24.33;3.65;;;6.60;99.90;;;;;;4993625;28;20077;-82
2021/03/13 00:57:53;;;;;;;22.23;4.90;;;6.60;99.90;;;;;;5005863;28;20101;-83
2021/03/13 01:00:35;;;;;;;23.27;3.92;;;6.50;99.90;;;;;;4991876;28;20065;-82
2021/03/13 01:03:01;;;;;;;21.42;4.45;;;6.60;99.90;;;;;;4996773;28;20084;-82
2021/03/13 01:05:28;;;;;;;24.52;4.07;;;6.60;99.90;;;;;;5006816;28;20100;-83
2021/03/13 01:07:54;;;;;;;18.10;3.63;;;6.60;99.90;;;;;;4998409;28;20501;-83
2021/03/13 01:10:26;;;;;;;16.48;3.00;;;6.60;99.90;;;;;;4986602;28;20133;-82
2021/03/13 01:12:53;;;;;;;18.33;3.80;;;6.60;99.90;;;;;;5005689;28;20056;-83
2021/03/13 01:15:22;;;;;;;25.48;4.28;;;6.60;99.90;;;;;;4990936;28;20570;-82
2021/03/13 01:17:48;;;;;;;21.92;3.42;;;6.60;99.90;;;;;;4990218;28;20056;-82
2021/03/13 01:20:16;;;;;;;19.50;4.07;;;6.70;99.90;;;;;;5006732;28;20140;-81
2021/03/13 01:22:44;;;;;;;20.75;3.60;;;6.70;99.90;;;;;;5006713;28;20464;-82
2021/03/13 01:25:12;;;;;;;17.90;4.88;;;6.70;99.90;;;;;;5005501;28;20546;-82
2021/03/13 01:27:38;;;;;;;16.35;3.97;;;6.80;99.90;;;;;;5006067;28;20148;-81
2021/03/13 01:30:11;;;;;;;19.70;3.45;;;6.80;99.90;;;;;;4991200;28;20473;-83
2021/03/13 01:32:37;;;;;;;15.18;4.72;;;6.80;99.90;;;;;;4997885;28;20064;-82
2021/03/13 01:35:06;;;;;;;15.35;3.25;;;6.80;99.90;;;;;;4996576;28;20101;-81
2021/03/13 01:37:32;;;;;;;13.63;3.33;;;6.90;99.90;;;;;;4997169;28;20149;-82
2021/03/13 01:39:58;;;;;;;16.27;3.53;;;6.90;99.90;;;;;;4995197;28;20066;-82
2021/03/13 01:42:25;;;;;;;23.55;4.18;;;6.90;99.90;;;;;;4988763;28;20049;-82
2021/03/13 01:44:51;;;;;;;15.70;4.40;;;6.90;99.90;;;;;;5008944;28;20133;-82
2021/03/13 01:47:22;;;;;;;20.27;4.25;;;6.90;99.90;;;;;;5010303;28;20121;-81
2021/03/13 01:49:50;;;;;;;12.95;3.60;;;6.90;99.90;;;;;;4988280;28;20476;-82
2021/03/13 01:52:19;;;;;;;14.10;3.47;;;6.90;99.90;;;;;;4992011;28;20050;-82
2021/03/13 01:54:47;;;;;;;18.80;4.05;;;6.80;99.90;;;;;;4994013;28;20062;-83
2021/03/13 01:57:16;;;;;;;17.13;3.80;;;6.80;99.90;;;;;;4995950;28;20493;-82
2021/03/13 01:59:42;;;;;;;11.52;4.60;;;6.70;99.90;;;;;;4998466;28;20565;-82
2021/03/13 02:02:10;;;;;;;21.02;4.13;;;6.60;99.90;;;;;;4994512;28;20050;-82
2021/03/13 02:04:37;;;;;;;19.38;4.00;;;6.50;99.90;;;;;;4990218;28;21071;-82
2021/03/13 02:07:32;;;;;;;17.00;4.97;;;6.40;99.90;;;;;;4998843;28;20164;-81
2021/03/13 02:10:15;;;;;;;15.70;4.60;;;6.30;99.90;;;;;;5006672;28;20050;-80
2021/03/13 02:13:02;;;;;;;15.43;4.40;;;6.30;99.90;;;;;;5008167;28;20085;-81
2021/03/13 02:15:56;;;;;;;15.48;4.18;;;6.20;99.90;;;;;;5008770;28;20052;-81
2021/03/13 02:18:33;;;;;;;11.27;3.63;;;6.20;99.90;;;;;;5005497;28;20049;-80
2021/03/13 02:21:04;;;;;;;18.42;5.43;;;6.20;99.90;;;;;;4991070;28;20489;-81
2021/03/13 02:23:35;;;;;;;18.20;5.85;;;6.20;99.90;;;;;;5006825;28;20050;-82
2021/03/13 02:26:27;;;;;;;15.88;4.38;;;6.20;99.90;;;;;;5005151;28;20156;-81
2021/03/13 02:29:20;;;;;;;12.50;4.78;;;6.10;99.90;;;;;;5006896;28;20498;-81
2021/03/13 02:31:52;;;;;;;11.30;5.05;;;6.20;99.90;;;;;;4982244;28;20148;-81
2021/03/13 02:34:23;;;;;;;11.55;4.25;;;6.10;99.90;;;;;;5001886;28;20137;-82
2021/03/13 02:36:51;;;;;;;13.70;5.22;;;6.10;99.90;;;;;;4993209;28;20508;-81
2021/03/13 02:39:22;;;;;;;12.23;4.45;;;6.10;99.90;;;;;;4996805;28;20046;-81
2021/03/13 02:41:52;;;;;;;14.05;4.65;;;6.10;99.90;;;;;;4999555;28;20049;-81
2021/03/13 02:44:22;;;;;;;21.98;4.90;;;6.10;99.90;;;;;;4995102;28;20077;-81
2021/03/13 02:46:50;;;;;;;12.38;4.70;;;6.00;99.90;;;;;;5009860;28;20145;-82
2021/03/13 02:49:23;;;;;;;13.82;4.88;;;6.00;99.90;;;;;;4991169;28;20066;-82
2021/03/13 02:51:51;;;;;;;10.23;3.47;;;6.00;99.90;;;;;;5008413;28;20053;-81
2021/03/13 02:54:18;;;;;;;9.50;3.75;;;5.90;99.90;;;;;;5006080;28;20827;-82
2021/03/13 02:56:45;;;;;;;8.65;3.38;;;5.90;99.90;;;;;;4999393;28;20137;-81
2021/03/13 02:59:15;;;;;;;7.10;3.35;;;5.90;99.90;;;;;;4995837;28;22463;-80
2021/03/13 03:01:55;;;;;;;9.75;3.63;;;5.80;99.90;;;;;;5010058;28;20054;-81
2021/03/13 03:04:23;;;;;;;9.20;4.25;;;5.80;99.90;;;;;;5005891;28;20056;-82
2021/03/13 03:06:52;;;;;;;9.10;3.92;;;5.70;99.90;;;;;;5008934;28;20136;-81
2021/03/13 03:09:21;;;;;;;12.18;4.07;;;5.80;99.90;;;;;;4996098;28;20580;-81
2021/03/13 03:11:47;;;;;;;7.90;4.00;;;5.80;99.90;;;;;;5007481;28;20056;-81
2021/03/13 03:14:17;;;;;;;11.43;4.30;;;5.70;99.90;;;;;;4993707;28;20073;-82
2021/03/13 03:16:51;;;;;;;9.70;4.03;;;5.70;99.90;;;;;;4999176;28;20481;-81
2021/03/13 03:19:18;;;;;;;6.65;3.92;;;5.80;99.90;;;;;;5005055;28;20057;-81
2021/03/13 03:21:45;;;;;;;9.40;4.30;;;5.70;99.90;;;;;;5008350;28;20068;-80
2021/03/13 03:24:12;;;;;;;10.70;4.70;;;5.70;99.90;;;;;;5010805;28;20045;-82
2021/03/13 03:26:39;;;;;;;7.93;3.47;;;5.70;99.90;;;;;;4997659;28;20038;-80
2021/03/13 03:29:09;;;;;;;8.80;4.15;;;5.70;99.90;;;;;;4989574;28;20060;-81
2021/03/13 03:31:36;;;;;;;10.63;4.70;;;5.70;99.90;;;;;;5008669;28;20056;-81
2021/03/13 03:34:04;;;;;;;6.13;4.05;;;5.80;99.90;;;;;;5006985;28;20119;-82
2021/03/13 03:36:31;;;;;;;13.02;4.97;;;5.80;99.90;;;;;;5008674;28;20568;-81
2021/03/13 03:38:58;;;;;;;5.30;3.75;;;5.80;99.90;;;;;;4996178;28;20145;-82
2021/03/13 03:41:29;;;;;;;7.20;3.75;;;5.80;99.90;;;;;;4995136;28;20046;-82
2021/03/13 03:44:01;;;;;;;9.23;3.60;;;5.80;99.90;;;;;;4987963;28;20124;-82
2021/03/13 03:46:28;;;;;;;10.40;3.85;;;5.90;99.90;;;;;;5008965;28;20065;-81
2021/03/13 03:48:55;;;;;;;5.60;3.72;;;5.90;99.90;;;;;;5008047;28;20379;-82
2021/03/13 03:51:26;;;;;;;8.45;3.97;;;5.90;99.90;;;;;;4985724;28;20102;-82
2021/03/13 03:53:53;;;;;;;7.03;3.63;;;5.90;99.90;;;;;;4967819;28;20042;-82
2021/03/13 03:56:21;;;;;;;13.10;3.67;;;5.90;99.90;;;;;;4970135;28;20513;-82
2021/03/13 03:58:49;;;;;;;5.60;2.90;;;6.00;99.90;;;;;;4984005;28;20097;-81
2021/03/13 04:01:16;;;;;;;10.45;3.70;;;6.00;99.90;;;;;;4969656;28;20134;-81
2021/03/13 04:03:51;;;;;;;12.90;6.18;;;6.00;99.90;;;;;;4966641;28;20054;-81
2021/03/13 04:06:18;;;;;;;7.05;3.85;;;6.00;99.90;;;;;;4967957;28;20149;-82
2021/03/13 04:08:47;;;;;;;8.45;3.58;;;6.10;99.90;;;;;;4965818;28;20565;-82
2021/03/13 04:11:16;;;;;;;7.80;3.22;;;6.10;99.90;;;;;;4968885;28;20487;-82
2021/03/13 04:13:43;;;;;;;6.40;2.60;;;6.10;99.90;;;;;;4965418;28;20375;-83
2021/03/13 04:16:13;;;;;;;7.63;3.35;;;6.10;99.90;;;;;;4967281;28;20081;-82
2021/03/13 04:18:40;;;;;;;9.75;3.33;;;6.10;99.90;;;;;;4967711;28;20054;-82
2021/03/13 04:21:07;;;;;;;5.28;2.13;;;6.10;99.90;;;;;;4968119;28;20073;-82
2021/03/13 04:23:36;;;;;;;7.70;2.85;;;6.20;99.90;;;;;;4968534;28;20046;-82
2021/03/13 04:26:04;;;;;;;12.85;3.20;;;6.20;99.90;;;;;;4969974;28;20177;-82
2021/03/13 04:28:30;;;;;;;9.43;2.83;;;6.20;99.90;;;;;;4967358;28;20049;-82
2021/03/13 04:30:57;;;;;;;6.72;2.42;;;6.20;99.90;;;;;;4972402;28;20047;-82
2021/03/13 04:33:24;;;;;;;8.40;2.95;;;6.30;99.90;;;;;;4987635;28;20058;-83
2021/03/13 04:35:52;;;;;;;8.75;3.40;;;6.30;99.90;;;;;;4972252;28;20110;-82
2021/03/13 04:38:19;;;;;;;8.30;3.25;;;6.30;99.90;;;;;;4965312;28;20118;-82
2021/03/13 04:40:47;;;;;;;5.20;3.03;;;6.30;99.90;;;;;;4972155;28;20074;-82
2021/03/13 04:43:16;;;;;;;7.13;3.25;;;6.30;99.90;;;;;;4970237;28;20470;-82
2021/03/13 04:45:43;;;;;;;7.05;2.83;;;6.30;99.90;;;;;;4971422;28;20057;-82
2021/03/13 04:48:11;;;;;;;5.13;2.75;;;6.30;99.90;;;;;;4968330;28;20443;-82
2021/03/13 04:50:38;;;;;;;7.40;2.65;;;6.30;99.90;;;;;;4984374;28;20081;-82
2021/03/13 04:53:05;;;;;;;8.10;3.38;;;6.30;99.90;;;;;;4968835;28;20414;-82
2021/03/13 04:55:31;;;;;;;8.20;3.10;;;6.30;99.90;;;;;;4954546;28;20689;-81
2021/03/13 04:57:57;;;;;;;8.35;2.97;;;6.40;99.90;;;;;;4955633;28;20043;-82
2021/03/13 05:00:24;;;;;;;8.93;3.40;;;6.40;99.90;;;;;;4969361;28;20050;-83
2021/03/13 05:02:50;;;;;;;5.35;3.40;;;6.40;99.90;;;;;;4969447;28;20043;-83
2021/03/13 05:05:17;;;;;;;5.00;2.55;;;6.40;99.90;;;;;;4987781;28;20034;-82
2021/03/13 05:07:43;;;;;;;5.07;3.03;;;6.40;99.90;;;;;;4989750;28;20042;-82
2021/03/13 05:10:10;;;;;;;4.68;2.65;;;6.50;99.90;;;;;;4968720;28;20088;-81
2021/03/13 05:12:36;;;;;;;10.48;2.60;;;6.50;99.90;;;;;;4983763;28;20050;-82
2021/03/13 05:15:08;;;;;;;12.52;2.75;;;6.50;99.90;;;;;;4969742;28;20097;-82
2021/03/13 05:17:34;;;;;;;10.65;2.63;;;6.50;99.90;;;;;;4989076;28;20512;-82
2021/03/13 05:20:00;;;;;;;10.10;2.80;;;6.50;99.90;;;;;;4987392;28;20109;-82
2021/03/13 05:22:27;;;;;;;3.53;2.50;;;6.60;99.90;;;;;;4987589;28;20046;-82
2021/03/13 05:24:53;;;;;;;7.90;2.85;;;6.60;99.90;;;;;;4974317;28;20120;-82
2021/03/13 05:27:20;;;;;;;7.53;3.45;;;6.60;99.90;;;;;;4983881;28;20054;-82
2021/03/13 05:29:46;;;;;;;8.15;3.53;;;6.60;99.90;;;;;;4973385;28;20058;-82
2021/03/13 05:32:13;;;;;;;9.75;2.72;;;6.60;99.90;;;;;;4971236;28;20512;-82
2021/03/13 05:34:40;;;;;;;3.88;2.42;;;6.70;99.90;;;;;;4970140;28;20453;-81
2021/03/13 05:37:06;;;;;;;7.35;2.72;;;6.70;99.90;;;;;;4987250;28;20746;-82
2021/03/13 05:39:32;;;;;;;6.22;2.47;;;6.60;99.90;;;;;;4985779;28;20050;-82
2021/03/13 05:41:59;;;;;;;8.35;2.40;;;6.70;99.90;;;;;;4987884;28;20061;-82
2021/03/13 05:44:25;;;;;;;7.30;2.65;;;6.70;99.90;;;;;;4969190;28;20046;-83
2021/03/13 05:46:52;;;;;;;9.98;2.70;;;6.70;99.90;;;;;;4978539;28;20081;-82
2021/03/13 05:49:20;;;;;;;4.85;2.20;;;6.70;99.90;;;;;;4968430;28;20053;-81
2021/03/13 05:51:47;;;;;;;7.35;2.42;;;6.70;99.90;;;;;;4966795;28;20055;-82
2021/03/13 05:54:16;;;;;;;17.42;3.70;;;6.70;99.90;;;;;;4948740;28;20457;-82
2021/03/13 05:56:58;;;;;;;10.07;2.88;;;6.70;99.90;;;;;;4980182;28;20058;-82
2021/03/13 05:59:25;;;;;;;8.50;2.47;;;6.70;99.90;;;;;;4949389;28;20447;-83
2021/03/13 06:01:52;;;;;;;12.82;2.92;;;6.70;99.90;;;;;;4949717;28;20099;-82
2021/03/13 06:04:24;;;;;;;5.88;2.30;;;6.70;99.90;;;;;;4970401;28;20051;-82
2021/03/13 06:06:52;;;;;;;6.07;2.42;;;6.70;99.90;;;;;;4984278;28;20046;-82
2021/03/13 06:09:19;;;;;;;5.82;2.05;;;6.70;99.90;;;;;;4954106;28;21078;-82
2021/03/13 06:11:45;;;;;;;4.63;2.40;;;6.70;99.90;;;;;;4952362;28;20055;-83
2021/03/13 06:14:11;;;;;;;4.68;2.17;;;6.70;99.90;;;;;;4960886;28;20094;-82
2021/03/13 06:16:38;;;;;;;1.58;0.82;;;6.70;99.90;;;;;;4947723;28;20134;-83
2021/03/13 06:19:05;;;;;;;3.20;0.73;;;6.70;99.90;;;;;;4948518;28;20605;-84
2021/03/13 06:21:33;;;;;;;0.63;0.40;;;6.60;99.90;;;;;;4968345;28;20055;-83
2021/03/13 06:24:07;;;;;;;4.00;0.93;;;6.50;99.90;;;;;;4963409;28;20081;-83
2021/03/13 06:27:01;;;;;;;1.48;0.80;;;6.30;99.90;;;;;;4964212;28;20470;-83
2021/03/13 06:29:29;;;;;;;1.77;0.75;;;6.10;99.90;;;;;;4964130;28;20219;-82
2021/03/13 06:32:13;;;;;;;2.00;0.50;;;6.00;99.90;;;;;;4960942;28;20065;-83
2021/03/13 06:35:15;;;;;;;1.77;0.40;;;5.90;99.90;;;;;;4983183;28;20068;-83
2021/03/13 06:37:41;;;;;;;2.63;0.30;;;5.80;99.90;;;;;;4963580;28;20150;-83
2021/03/13 06:40:08;;;;;;;2.10;0.50;;;5.80;99.90;;;;;;4966257;28;20090;-83
2021/03/13 06:42:34;;;;;;;2.90;0.65;;;5.80;99.90;;;;;;4985439;28;20133;-82
2021/03/13 06:45:02;;;;;;;1.48;0.38;;;5.70;99.90;;;;;;4965625;28;20502;-82
2021/03/13 06:47:30;;;;;;;1.73;0.40;;;5.70;99.90;;;;;;4968732;28;20077;-83
2021/03/13 06:50:26;;;;;;;2.63;0.60;;;5.70;99.90;;;;;;4965555;28;20051;-83
2021/03/13 06:53:07;;;;;;;6.63;0.60;;;5.70;99.90;;;;;;4953600;28;20050;-83
2021/03/13 06:55:34;;;;;;;8.95;1.23;;;5.70;99.90;;;;;;4966638;28;20053;-83
2021/03/13 06:58:14;;;;;;;14.50;1.48;;;5.70;99.90;;;;;;4971637;28;20173;-82
2021/03/13 07:00:44;;;;;;;10.60;1.20;;;5.70;99.90;;;;;;4983538;28;20120;-82
2021/03/13 07:03:15;;;;;;;12.32;1.35;;;5.70;99.90;;;;;;4981372;28;20178;-83
2021/03/13 07:05:43;;;;;;;7.47;1.10;;;5.80;99.90;;;;;;4975518;28;20054;-81
2021/03/13 07:08:29;;;;;;;4.22;1.10;;;5.90;99.90;;;;;;4977349;28;20053;-84
2021/03/13 07:11:10;;;;;;;7.97;1.30;;;6.00;99.90;;;;;;4989733;28;20449;-84
2021/03/13 07:13:45;;;;;;;10.65;1.42;;;6.10;99.90;;;;;;4991151;28;20053;-81
2021/03/13 07:16:27;;;;;;;14.13;2.08;;;6.10;99.90;;;;;;4985460;28;20065;-83
2021/03/13 07:19:07;;;;;;;10.82;2.83;;;6.10;99.90;;;;;;4987446;28;20050;-82
2021/03/13 07:21:36;;;;;;;13.07;2.08;;;6.20;99.90;;;;;;4988165;28;20137;-83
2021/03/13 07:24:06;;;;;;;11.15;1.33;;;6.30;99.90;;;;;;4987793;28;20064;-83
2021/03/13 07:26:46;;;;;;;15.30;2.45;;;6.40;99.90;;;;;;4997037;28;20089;-81
2021/03/13 07:29:17;;;;;;;11.95;2.22;;;6.50;99.90;;;;;;4983675;28;20046;-81
2021/03/13 07:31:49;;;;;;;8.05;2.45;;;6.60;99.90;;;;;;4985430;28;20074;-82
2021/03/13 07:34:20;;;;;;;12.95;2.38;;;6.60;99.90;;;;;;4977677;28;20092;-81
2021/03/13 07:36:56;;;;;;;14.43;2.70;;;6.70;99.90;;;;;;4979123;28;20042;-82
2021/03/13 07:39:28;;;;;;;11.60;2.13;;;6.70;99.90;;;;;;4989444;28;20407;-81
2021/03/13 07:42:00;;;;;;;11.75;2.08;;;6.70;99.90;;;;;;5000158;28;20046;-81
2021/03/13 07:44:28;;;;;;;19.85;2.17;;;6.70;99.90;;;;;;5002449;28;20041;-81
2021/03/13 07:46:56;;;;;;;21.15;2.97;;;6.80;99.90;;;;;;4989602;28;20046;-82
2021/03/13 07:49:24;;;;;;;10.25;2.25;;;6.80;99.90;;;;;;4982074;28;20077;-80
2021/03/13 07:51:51;;;;;;;12.23;1.80;;;6.90;99.90;;;;;;4970112;28;20138;-81
2021/03/13 07:54:18;;;;;;;13.85;2.35;;;6.90;99.90;;;;;;4969705;28;20134;-81
2021/03/13 07:56:45;;;;;;;12.40;2.25;;;6.90;99.90;;;;;;4966990;28;20053;-81
2021/03/13 07:59:13;;;;;;;9.30;1.83;;;7.00;99.90;;;;;;4976388;28;20046;-80
2021/03/13 08:01:50;;;;;;;10.90;1.80;;;7.10;99.90;;;;;;4967617;28;20138;-83
2021/03/13 08:04:38;;;;;;;22.98;2.63;;;7.10;99.90;;;;;;4968668;28;20122;-84
2021/03/13 08:07:05;;;;;;;16.00;2.00;;;7.10;99.90;;;;;;4985573;28;20050;-82
2021/03/13 08:09:32;;;;;;;15.52;2.28;;;7.10;99.90;;;;;;4987760;28;20058;-84
2021/03/13 08:12:01;;;;;;;16.48;2.63;;;7.10;99.90;;;;;;4973301;28;20102;-82
2021/03/13 08:14:35;;;;;;;11.88;2.25;;;7.10;99.90;;;;;;4976838;28;20124;-84
2021/03/13 08:17:09;;;;;;;18.58;3.08;;;7.30;99.90;;;;;;4972532;28;20097;-83
2021/03/13 08:19:38;;;;;;;18.38;2.55;;;7.50;99.90;;;;;;4972139;28;20468;-83
2021/03/13 08:22:23;;;;;;;10.45;2.00;;;7.70;99.90;;;;;;4963008;28;20054;-85
2021/03/13 08:24:52;;;;;;;14.00;2.45;;;7.90;99.90;;;;;;4954466;28;20121;-82
2021/03/13 08:27:39;;;;;;;14.23;2.88;;;8.20;99.90;;;;;;4934338;28;20066;-83
2021/03/13 08:30:22;;;;;;;16.15;2.22;;;8.50;99.90;;;;;;4968544;28;20049;-83
2021/03/13 08:33:05;;;;;;;10.88;1.95;;;8.50;99.90;;;;;;4990492;28;20154;-82
2021/03/13 08:35:48;;;;;;;12.82;1.90;;;8.60;99.90;;;;;;4970866;28;20054;-86
2021/03/13 08:38:18;;;;;;;18.92;2.72;;;8.70;99.90;;;;;;4965869;28;20125;-86
2021/03/13 08:40:48;;;;;;;13.05;2.10;;;8.70;99.90;;;;;;4958806;28;20138;-84
2021/03/13 08:43:38;;;;;;;11.18;1.70;;;8.60;99.90;;;;;;4971874;28;20038;-84
2021/03/13 08:46:24;;;;;;;10.55;1.92;;;8.60;99.90;;;;;;4969456;28;20110;-81
2021/03/13 08:48:58;;;;;;;9.95;1.67;;;8.70;99.90;;;;;;4976936;28;20061;-82
2021/03/13 08:51:26;;;;;;;8.93;0.98;;;8.60;99.90;;;;;;4986909;28;20067;-81
2021/03/13 08:53:54;;;;;;;17.90;1.85;;;8.50;99.90;;;;;;4988441;28;20902;-81
2021/03/13 08:56:38;;;;;;;10.00;2.20;;;8.50;99.90;;;;;;4974670;28;20070;-83
2021/03/13 08:59:22;;;;;;;12.68;1.48;;;8.40;99.90;;;;;;4970425;28;20050;-87
2021/03/13 09:02:05;;;;;;;14.82;1.35;;;8.30;99.90;;;;;;4972406;28;21130;-85
2021/03/13 09:04:42;;;;;;;10.68;2.17;;;8.10;99.90;;;;;;4955770;28;20054;-83
2021/03/13 09:07:10;;;;;;;10.80;3.08;;;7.90;99.90;;;;;;4969754;28;20074;-86
2021/03/13 09:09:39;;;;;;;16.50;2.25;;;7.80;99.90;;;;;;4967706;28;20050;-84
2021/03/13 09:12:11;;;;;;;12.35;2.47;;;7.90;99.90;;;;;;4963430;28;20067;-85
2021/03/13 09:14:47;;;;;;;15.32;1.73;;;8.00;99.90;;;;;;4945207;28;20114;-85
2021/03/13 09:17:32;;;;;;;8.63;1.48;;;8.10;99.90;;;;;;4950248;28;20047;-86
2021/03/13 09:20:10;;;;;;;16.10;2.10;;;8.10;99.90;;;;;;4957681;28;20509;-85
2021/03/13 09:22:38;;;;;;;12.38;2.35;;;8.10;99.90;;;;;;4949825;28;20129;-86
2021/03/13 09:25:09;;;;;;;15.45;2.67;;;8.00;99.90;;;;;;4973250;28;20116;-85
2021/03/13 09:27:39;;;;;;;17.70;2.45;;;7.80;99.90;;;;;;4964587;28;20069;-85
2021/03/13 09:30:27;;;;;;;13.50;1.85;;;7.60;99.90;;;;;;4972638;28;20092;-86
2021/03/13 09:32:56;;;;;;;22.10;2.30;;;7.40;99.90;;;;;;4973029;28;20082;-82
2021/03/13 09:35:27;;;;;;;17.60;3.17;;;7.30;99.90;;;;;;4977473;28;20077;-81
2021/03/13 09:37:54;;;;;;;13.32;2.15;;;7.30;99.90;;;;;;4973889;28;20078;-83
2021/03/13 09:40:26;;;;;;;10.07;1.65;;;7.30;99.90;;;;;;4974451;28;20105;-82
2021/03/13 09:42:54;;;;;;;14.85;2.65;;;7.50;99.90;;;;;;4960723;28;20070;-83
2021/03/13 09:45:22;;;;;;;21.20;2.40;;;7.80;99.90;;;;;;4979708;28;20038;-82
2021/03/13 09:47:54;;;;;;;14.48;3.22;;;8.10;99.90;;;;;;4960405;28;20085;-84
2021/03/13 09:50:27;;;;;;;10.60;1.75;;;8.40;99.90;;;;;;4986079;28;20054;-82
2021/03/13 09:52:55;;;;;;;15.13;2.20;;;8.50;99.90;;;;;;4970296;28;20119;-82
2021/03/13 09:55:26;;;;;;;13.80;1.60;;;8.50;99.90;;;;;;4964600;28;20046;-82
2021/03/13 09:57:54;;;;;;;13.70;1.98;;;8.40;99.90;;;;;;4971177;28;20051;-82
2021/03/13 10:00:25;;;;;;;18.27;2.33;;;8.30;99.90;;;;;;4963482;28;20047;-84
2021/03/13 10:02:54;;;;;;;17.98;1.67;;;8.20;99.90;;;;;;4967382;28;20122;-84
2021/03/13 10:05:25;;;;;;;9.02;1.65;;;8.20;99.90;;;;;;4969373;28;20047;-84
2021/03/13 10:07:52;;;;;;;14.25;2.53;;;8.20;99.90;;;;;;4984082;28;20055;-85
2021/03/13 10:10:24;;;;;;;6.20;1.40;;;8.20;99.90;;;;;;4969767;28;20050;-83
2021/03/13 10:12:55;;;;;;;11.43;1.77;;;8.30;99.90;;;;;;4969828;28;20110;-84
2021/03/13 10:15:25;;;;;;;14.43;1.65;;;8.40;99.90;;;;;;4986056;28;20113;-85
2021/03/13 10:18:04;;;;;;;13.18;2.60;;;8.50;99.90;;;;;;4980627;28;20068;-83
2021/03/13 10:20:58;;;;;;;13.98;2.10;;;8.60;99.90;;;;;;4971744;28;20050;-85
2021/03/13 10:23:32;;;;;;;19.43;2.43;;;8.80;99.90;;;;;;4971880;28;20060;-86
2021/03/13 10:26:08;;;;;;;16.38;2.55;;;8.90;99.90;;;;;;4973008;28;20047;-84
2021/03/13 10:28:37;;;;;;;22.52;2.05;;;9.10;99.90;;;;;;4969562;28;20491;-83
2021/03/13 10:31:18;;;;;;;21.02;2.25;;;9.40;99.90;;;;;;4973361;28;20190;-86
2021/03/13 10:33:46;;;;;;;17.67;2.65;;;9.60;99.90;;;;;;4971322;28;20082;-84
2021/03/13 10:36:15;;;;;;;9.45;1.73;;;9.80;99.90;;;;;;4929965;28;20085;-86
2021/03/13 10:38:52;;;;;;;17.92;2.20;;;9.80;99.90;;;;;;4963869;28;20070;-86
2021/03/13 10:41:23;;;;;;;8.45;2.83;;;10.00;99.90;;;;;;4961370;28;20051;-85
2021/03/13 10:43:56;;;;;;;14.80;3.55;;;10.30;99.90;;;;;;4953801;28;20046;-86
2021/03/13 10:46:25;;;;;;;17.15;2.58;;;10.40;99.90;;;;;;4967930;28;20053;-87
2021/03/13 10:48:59;;;;;;;12.60;1.65;;;10.30;99.90;;;;;;4960042;28;20050;-86
2021/03/13 10:51:36;;;;;;;11.35;2.75;;;10.20;99.90;;;;;;4933575;28;20478;-88
2021/03/13 10:54:04;;;;;;;19.73;3.13;;;10.20;99.90;;;;;;4948654;28;20062;-84
2021/03/13 10:56:40;;;;;;;13.20;2.00;;;10.10;99.90;;;;;;4964698;28;20081;-84
2021/03/13 10:59:08;;;;;;;16.60;2.35;;;9.90;99.90;;;;;;4957418;28;20051;-82
2021/03/13 11:01:34;;;;;;;17.95;1.98;;;9.70;99.90;;;;;;4969824;28;20054;-83
2021/03/13 11:04:01;;;;;;;14.45;2.28;;;9.60;99.90;;;;;;4967549;28;20074;-84
2021/03/13 11:06:33;;;;;;;10.80;1.75;;;9.60;99.90;;;;;;4978542;28;20099;-82
2021/03/13 11:09:05;;;;;;;20.98;3.28;;;9.80;99.90;;;;;;4984655;28;20164;-83
2021/03/13 11:11:31;;;;;;;14.20;2.72;;;9.90;99.90;;;;;;4972795;28;20054;-81
2021/03/13 11:13:58;;;;;;;15.55;2.25;;;9.80;99.90;;;;;;4985325;28;20146;-83
2021/03/13 11:16:24;;;;;;;8.15;1.65;;;9.60;99.90;;;;;;4955366;28;20129;-84
2021/03/13 11:18:54;;;;;;;10.48;2.38;;;9.60;99.90;;;;;;4972661;28;20054;-84
2021/03/13 11:21:23;;;;;;;15.60;3.03;;;9.60;99.90;;;;;;4974971;28;20572;-86
2021/03/13 11:23:54;;;;;;;13.90;2.03;;;9.90;99.90;;;;;;4953992;28;20138;-83
2021/03/13 11:26:26;;;;;;;12.48;2.15;;;10.20;99.90;;;;;;4988820;28;20034;-84
2021/03/13 11:28:56;;;;;;;12.93;2.28;;;10.50;99.90;;;;;;4932217;28;20054;-85
2021/03/13 11:31:25;;;;;;;4.15;0.80;;;10.50;99.90;;;;;;4951859;28;20049;-84
2021/03/13 11:33:51;;;;;;;6.30;1.25;;;10.30;99.90;;;;;;4988057;28;20051;-87
2021/03/13 11:36:18;;;;;;;6.57;0.98;;;9.80;99.90;;;;;;4939008;28;20481;-88
2021/03/13 11:38:45;;;;;;;14.13;1.92;;;9.20;99.90;;;;;;4963784;28;20054;-87
2021/03/13 11:41:13;;;;;;;11.75;2.67;;;8.60;99.90;;;;;;4950666;28;20465;-85
2021/03/13 11:43:42;;;;;;;20.58;3.63;;;8.20;99.90;;;;;;4983681;28;20050;-87
2021/03/13 11:46:10;;;;;;;13.60;2.20;;;8.00;99.90;;;;;;4977541;28;20062;-84
2021/03/13 11:48:37;;;;;;;21.45;1.90;;;8.00;99.90;;;;;;4980147;28;20055;-83
2021/03/13 11:51:04;;;;;;;10.65;1.55;;;8.00;99.90;;;;;;4961392;28;20446;-83
2021/03/13 11:53:33;;;;;;;11.70;2.15;;;8.00;99.90;;;;;;4984117;28;20034;-83
2021/03/13 11:56:01;;;;;;;12.13;1.88;;;8.00;99.90;;;;;;4971068;28;20161;-87
2021/03/13 11:58:28;;;;;;;7.68;1.40;;;7.90;99.90;;;;;;4983318;28;20137;-86
2021/03/13 12:01:19;;;;;;;7.78;1.02;;;7.90;99.90;;;;;;4978872;28;20050;-87
2021/03/13 12:03:48;;;;;;;9.52;1.90;;;7.90;99.90;;;;;;5001076;28;20057;-86
2021/03/13 12:06:17;;;;;;;7.40;1.20;;;7.70;99.90;;;;;;5009636;28;20042;-85
2021/03/13 12:08:55;;;;;;;5.32;1.00;;;7.40;99.90;;;;;;5010276;28;20394;-83
2021/03/13 12:11:21;;;;;;;15.57;3.90;;;7.20;99.90;;;;;;4993770;28;20493;-85
2021/03/13 12:13:48;;;;;;;7.63;1.92;;;7.20;99.90;;;;;;4990089;28;20082;-83
2021/03/13 12:16:14;;;;;;;12.88;1.60;;;7.30;99.90;;;;;;4996953;28;20105;-85
2021/03/13 12:18:42;;;;;;;16.15;2.03;;;7.60;99.90;;;;;;4993090;28;20050;-84
2021/03/13 12:21:09;;;;;;;10.52;2.42;;;7.70;99.90;;;;;;4994961;28;20057;-86
2021/03/13 12:23:35;;;;;;;11.38;1.90;;;7.80;99.90;;;;;;5011302;28;20133;-87
2021/03/13 12:26:08;;;;;;;8.95;1.60;;;8.00;99.90;;;;;;4959234;28;20072;-85
2021/03/13 12:28:34;;;;;;;8.77;1.65;;;8.10;99.90;;;;;;4989117;28;20078;-87
2021/03/13 12:31:01;;;;;;;7.55;1.30;;;8.30;99.90;;;;;;4992915;28;20046;-86
2021/03/13 12:33:27;;;;;;;13.95;1.73;;;8.40;99.90;;;;;;5009588;28;20137;-82
2021/03/13 12:35:54;;;;;;;16.38;2.08;;;8.50;99.90;;;;;;5002295;28;20113;-87
2021/03/13 12:38:20;;;;;;;15.75;2.08;;;8.60;99.90;;;;;;5001944;28;20091;-85
2021/03/13 12:41:02;;;;;;;10.40;1.33;;;8.60;99.90;;;;;;4981125;28;20077;-86
2021/03/13 12:43:29;;;;;;;12.55;1.67;;;8.50;99.90;;;;;;4980323;28;20049;-86
2021/03/13 12:45:59;;;;;;;15.25;2.10;;;8.50;99.90;;;;;;4996567;28;20057;-88
2021/03/13 12:48:27;;;;;;;8.20;0.93;;;8.40;99.90;;;;;;4977866;28;20060;-86
2021/03/13 12:50:57;;;;;;;10.80;1.17;;;7.90;99.90;;;;;;4992060;28;20046;-88
2021/03/13 12:53:32;;;;;;;3.65;1.10;;;7.30;99.90;;;;;;4974984;28;20093;-88
2021/03/13 12:55:59;;;;;;;2.50;0.52;;;6.80;99.90;;;;;;4992523;28;20509;-85
2021/03/13 12:58:25;;;;;;;10.60;1.10;;;6.50;99.90;;;;;;4948644;28;20076;-87
2021/03/13 13:00:51;;;;;;;10.57;1.58;;;6.30;99.90;;;;;;4973203;28;20046;-87
2021/03/13 13:03:21;;;;;;;6.82;1.40;;;6.20;99.90;;;;;;4954151;28;20073;-87
2021/03/13 13:05:56;;;;;;;9.35;1.45;;;6.40;99.90;;;;;;4985831;28;20050;-85
2021/03/13 13:08:23;;;;;;;10.88;1.38;;;6.90;99.90;;;;;;5014320;28;20046;-87